createdAt,value
2018-12-23T00:00:55.768Z,75.24
2018-12-23T00:03:23.209Z,75.09
2018-12-23T00:05:50.639Z,74.85
2018-12-23T00:08:18.378Z,74.77
2018-12-23T00:10:45.973Z,74.55
2018-12-23T00:13:13.485Z,74.31
2018-12-23T00:15:40.933Z,74.16
2018-12-23T00:18:08.338Z,74.23
2018-12-23T00:20:36.073Z,74.31
2018-12-23T00:23:03.535Z,74.08
2018-12-23T00:25:31.405Z,74.10
2018-12-23T00:27:58.848Z,74.15
2018-12-23T00:30:26.312Z,74.00
2018-12-23T00:32:54.056Z,74.21
2018-12-23T00:35:21.828Z,74.53
2018-12-23T00:37:49.417Z,74.76
2018-12-23T00:40:16.954Z,74.86
2018-12-23T00:42:44.416Z,74.86
2018-12-23T00:45:11.877Z,75.19
2018-12-23T00:47:39.284Z,75.33
2018-12-23T00:50:07.574Z,75.05
2018-12-23T00:52:35.073Z,75.19
2018-12-23T00:55:02.479Z,75.50
2018-12-23T00:57:30.387Z,75.26
2018-12-23T00:59:57.980Z,75.60
2018-12-23T01:02:25.717Z,75.57
2018-12-23T01:04:53.176Z,75.54
2018-12-23T01:07:20.815Z,75.51
2018-12-23T01:09:48.324Z,75.97
2018-12-23T01:12:15.717Z,76.09
2018-12-23T01:14:43.418Z,75.97
2018-12-23T01:17:11.002Z,76.07
2018-12-23T01:19:38.657Z,76.14
2018-12-23T01:22:06.090Z,76.19
2018-12-23T01:24:33.552Z,76.04
2018-12-23T01:27:00.940Z,75.94
2018-12-23T01:29:28.396Z,75.90
2018-12-23T01:31:55.841Z,76.01
2018-12-23T01:34:23.245Z,76.14
2018-12-23T01:36:50.633Z,76.19
2018-12-23T01:39:18.399Z,76.16
2018-12-23T01:41:46.033Z,76.51
2018-12-23T01:44:13.507Z,76.44
2018-12-23T01:46:40.909Z,76.40
2018-12-23T01:49:08.385Z,76.73
2018-12-23T01:51:35.790Z,76.66
2018-12-23T01:54:03.557Z,76.68
2018-12-23T01:56:31.000Z,76.76
2018-12-23T01:58:58.385Z,76.75
2018-12-23T02:01:25.973Z,76.98
2018-12-23T02:03:53.589Z,77.02
2018-12-23T02:06:21.214Z,77.04
2018-12-23T02:08:48.719Z,76.53
2018-12-23T02:11:16.149Z,76.84
2018-12-23T02:13:43.612Z,76.82
2018-12-23T02:16:11.084Z,76.56
2018-12-23T02:18:38.536Z,76.87
2018-12-23T02:21:05.984Z,76.54
2018-12-23T02:23:33.451Z,76.66
2018-12-23T02:26:00.935Z,76.63
2018-12-23T02:28:28.488Z,76.62
2018-12-23T02:30:56.226Z,76.28
2018-12-23T02:33:23.693Z,76.47
2018-12-23T02:35:55.498Z,76.36
2018-12-23T02:38:21.023Z,76.51
2018-12-23T02:40:48.424Z,76.63
2018-12-23T02:43:16.381Z,76.52
2018-12-23T02:45:43.777Z,76.64
2018-12-23T02:48:11.700Z,76.52
2018-12-23T02:50:39.169Z,76.72
2018-12-23T02:53:06.803Z,76.51
2018-12-23T02:55:34.248Z,76.54
2018-12-23T02:58:01.673Z,76.59
2018-12-23T03:00:29.185Z,76.78
2018-12-23T03:02:56.584Z,76.92
2018-12-23T03:05:24.316Z,76.88
2018-12-23T03:07:52.050Z,76.96
2018-12-23T03:10:19.500Z,76.98
2018-12-23T03:12:47.044Z,76.96
2018-12-23T03:15:14.519Z,76.99
2018-12-23T03:17:41.977Z,76.83
2018-12-23T03:20:09.418Z,76.75
2018-12-23T03:22:37.333Z,76.65
2018-12-23T03:25:04.880Z,76.69
2018-12-23T03:27:32.282Z,76.75
2018-12-23T03:29:59.704Z,76.92
2018-12-23T03:32:27.106Z,76.74
2018-12-23T03:34:54.581Z,76.75
2018-12-23T03:37:22.012Z,76.84
2018-12-23T03:39:49.409Z,76.84
2018-12-23T03:42:16.793Z,76.85
2018-12-23T03:44:44.190Z,77.03
2018-12-23T03:47:11.841Z,76.75
2018-12-23T03:49:39.380Z,76.83
2018-12-23T03:52:06.827Z,76.90
2018-12-23T03:54:34.379Z,76.84
2018-12-23T03:57:02.556Z,76.88
2018-12-23T03:59:30.430Z,76.75
2018-12-23T04:01:57.868Z,77.01
2018-12-23T04:04:25.261Z,76.81
2018-12-23T04:06:52.939Z,77.06
2018-12-23T04:09:20.338Z,76.88
2018-12-23T04:11:48.125Z,76.89
2018-12-23T04:14:15.529Z,77.17
2018-12-23T04:16:43.250Z,76.87
2018-12-23T04:19:10.955Z,76.85
2018-12-23T04:21:38.388Z,76.63
2018-12-23T04:24:05.801Z,77.04
2018-12-23T04:26:33.477Z,76.95
2018-12-23T04:29:01.218Z,76.89
2018-12-23T04:31:28.615Z,76.90
2018-12-23T04:33:56.005Z,76.92
2018-12-23T04:36:23.401Z,76.90
2018-12-23T04:38:51.175Z,76.87
2018-12-23T04:41:18.640Z,77.04
2018-12-23T04:43:46.345Z,76.77
2018-12-23T04:46:13.795Z,76.72
2018-12-23T04:48:41.257Z,76.73
2018-12-23T04:51:08.656Z,76.75
2018-12-23T04:53:36.338Z,76.70
2018-12-23T04:56:03.914Z,76.52
2018-12-23T04:58:31.458Z,76.30
2018-12-23T05:00:58.936Z,76.23
2018-12-23T05:03:26.396Z,76.36
2018-12-23T05:05:53.825Z,76.07
2018-12-23T05:08:21.222Z,76.39
2018-12-23T05:10:48.901Z,76.54
2018-12-23T05:13:16.514Z,76.14
2018-12-23T05:15:43.902Z,76.02
2018-12-23T05:18:11.303Z,75.90
2018-12-23T05:20:39.188Z,75.78
2018-12-23T05:23:06.722Z,76.05
2018-12-23T05:25:34.405Z,76.23
2018-12-23T05:28:01.969Z,76.25
2018-12-23T05:30:29.426Z,76.80
2018-12-23T05:32:56.881Z,76.37
2018-12-23T05:35:24.277Z,76.71
2018-12-23T05:37:51.754Z,76.53
2018-12-23T05:40:19.157Z,76.47
2018-12-23T05:42:46.623Z,76.63
2018-12-23T05:45:14.169Z,76.71
2018-12-23T05:47:42.041Z,76.80
2018-12-23T05:50:09.906Z,77.04
2018-12-23T05:52:37.302Z,76.73
2018-12-23T05:55:04.813Z,76.79
2018-12-23T05:57:32.341Z,76.94
2018-12-23T05:59:59.735Z,76.87
2018-12-23T06:02:27.335Z,76.61
2018-12-23T06:04:54.729Z,76.61
2018-12-23T06:07:22.248Z,76.69
2018-12-23T06:09:49.709Z,76.74
2018-12-23T06:12:17.099Z,76.86
2018-12-23T06:14:44.571Z,76.48
2018-12-23T06:17:12.032Z,76.45
2018-12-23T06:19:39.732Z,76.59
2018-12-23T06:22:07.267Z,76.61
2018-12-23T06:24:34.745Z,76.82
2018-12-23T06:27:02.133Z,76.63
2018-12-23T06:29:29.838Z,76.57
2018-12-23T06:31:57.438Z,76.70
2018-12-23T06:34:25.001Z,76.60
2018-12-23T06:36:52.482Z,76.74
2018-12-23T06:39:19.881Z,76.64
2018-12-23T06:41:47.269Z,76.69
2018-12-23T06:44:14.919Z,76.84
2018-12-23T06:46:42.379Z,76.56
2018-12-23T06:49:09.906Z,76.78
2018-12-23T06:51:37.404Z,76.34
2018-12-23T06:54:04.865Z,76.30
2018-12-23T06:56:32.395Z,76.35
2018-12-23T06:58:59.794Z,76.45
2018-12-23T07:01:27.181Z,76.25
2018-12-23T07:03:54.731Z,76.40
2018-12-23T07:06:22.119Z,76.47
2018-12-23T07:08:50.203Z,76.27
2018-12-23T07:11:17.836Z,76.18
2018-12-23T07:13:45.226Z,76.42
2018-12-23T07:16:12.753Z,76.25
2018-12-23T07:18:40.209Z,76.24
2018-12-23T07:21:07.682Z,76.12
2018-12-23T07:23:35.078Z,76.29
2018-12-23T07:26:02.524Z,76.28
2018-12-23T07:28:29.924Z,76.23
2018-12-23T07:30:57.321Z,75.96
2018-12-23T07:33:24.718Z,75.82
2018-12-23T07:35:52.182Z,75.87
2018-12-23T07:38:19.708Z,75.86
2018-12-23T07:40:47.104Z,75.90
2018-12-23T07:43:14.500Z,75.87
2018-12-23T07:45:41.970Z,75.70
2018-12-23T07:48:09.702Z,75.84
2018-12-23T07:50:37.093Z,75.46
2018-12-23T07:53:04.535Z,75.50
2018-12-23T07:55:32.066Z,75.30
2018-12-23T07:57:59.453Z,75.34
2018-12-23T08:00:27.128Z,75.19
2018-12-23T08:02:54.525Z,74.86
2018-12-23T08:05:22.369Z,74.92
2018-12-23T08:07:49.845Z,75.12
2018-12-23T08:10:17.642Z,74.95
2018-12-23T08:12:45.233Z,75.13
2018-12-23T08:15:12.755Z,74.98
2018-12-23T08:17:40.140Z,75.05
2018-12-23T08:20:07.789Z,75.05
2018-12-23T08:22:35.337Z,74.59
2018-12-23T08:25:02.808Z,74.46
2018-12-23T08:27:30.248Z,74.58
2018-12-23T08:29:57.706Z,74.56
2018-12-23T08:32:25.165Z,74.26
2018-12-23T08:34:52.812Z,74.36
2018-12-23T08:37:20.204Z,74.21
2018-12-23T08:39:47.585Z,74.04
2018-12-23T08:42:15.009Z,73.95
2018-12-23T08:44:42.581Z,74.04
2018-12-23T08:47:10.308Z,74.01
2018-12-23T08:49:37.767Z,73.87
2018-12-23T08:52:05.153Z,73.68
2018-12-23T08:54:32.629Z,73.75
2018-12-23T08:57:00.154Z,73.37
2018-12-23T08:59:27.539Z,73.25
2018-12-23T09:01:55.466Z,73.53
2018-12-23T09:04:23.012Z,73.46
2018-12-23T09:06:50.413Z,73.27
2018-12-23T09:09:17.842Z,73.15
2018-12-23T09:11:45.297Z,73.08
2018-12-23T09:14:12.761Z,73.23
2018-12-23T09:16:40.139Z,73.20
2018-12-23T09:19:07.534Z,73.31
2018-12-23T09:21:35.537Z,73.49
2018-12-23T09:24:03.035Z,73.05
2018-12-23T09:26:30.866Z,72.90
2018-12-23T09:28:58.556Z,73.13
2018-12-23T09:31:25.940Z,73.19
2018-12-23T09:33:53.502Z,73.13
2018-12-23T09:36:20.975Z,72.27
2018-12-23T09:38:48.643Z,72.32
2018-12-23T09:41:16.077Z,71.91
2018-12-23T09:43:43.476Z,71.64
2018-12-23T09:46:10.933Z,71.73
2018-12-23T09:48:38.388Z,71.60
2018-12-23T09:51:05.784Z,71.45
2018-12-23T09:53:33.724Z,70.73
2018-12-23T09:56:01.307Z,70.88
2018-12-23T09:58:28.684Z,70.42
2018-12-23T10:00:56.220Z,70.39
2018-12-23T10:03:23.612Z,70.16
2018-12-23T10:05:50.999Z,70.30
2018-12-23T10:08:18.393Z,70.67
2018-12-23T10:10:45.919Z,70.54
2018-12-23T10:13:13.364Z,70.37
2018-12-23T10:15:40.762Z,69.86
2018-12-23T10:18:08.696Z,69.76
2018-12-23T10:20:36.102Z,69.82
2018-12-23T10:23:03.757Z,69.87
2018-12-23T10:25:31.154Z,70.06
2018-12-23T10:27:58.933Z,69.82
2018-12-23T10:30:26.767Z,70.03
2018-12-23T10:32:54.246Z,69.58
2018-12-23T10:35:21.726Z,69.60
2018-12-23T10:37:49.109Z,69.84
2018-12-23T10:40:16.916Z,69.36
2018-12-23T10:42:44.313Z,69.77
2018-12-23T10:45:11.728Z,69.75
2018-12-23T10:47:39.125Z,69.78
2018-12-23T10:50:07.278Z,69.80
2018-12-23T10:52:35.152Z,70.21
2018-12-23T10:55:02.831Z,70.32
2018-12-23T10:57:30.389Z,70.25
2018-12-23T10:59:57.943Z,70.35
2018-12-23T11:02:25.333Z,70.53
2018-12-23T11:04:52.725Z,70.97
2018-12-23T11:07:20.109Z,71.31
2018-12-23T11:09:47.762Z,71.80
2018-12-23T11:12:15.230Z,72.30
2018-12-23T11:14:42.866Z,72.79
2018-12-23T11:17:10.957Z,72.86
2018-12-23T11:19:38.533Z,73.25
2018-12-23T11:22:06.046Z,73.58
2018-12-23T11:24:33.448Z,74.17
2018-12-23T11:27:01.224Z,74.84
2018-12-23T11:29:28.772Z,75.08
2018-12-23T11:31:56.242Z,75.47
2018-12-23T11:34:23.696Z,75.52
2018-12-23T11:36:51.094Z,75.90
2018-12-23T11:39:18.746Z,76.56
2018-12-23T11:41:46.133Z,76.42
2018-12-23T11:44:13.801Z,76.55
2018-12-23T11:46:41.251Z,76.87
2018-12-23T11:49:08.811Z,77.05
2018-12-23T11:51:36.315Z,77.10
2018-12-23T11:54:03.946Z,77.01
2018-12-23T11:56:31.337Z,77.22
2018-12-23T11:58:58.945Z,77.49
2018-12-23T12:01:26.413Z,77.37
2018-12-23T12:03:53.873Z,77.46
2018-12-23T12:06:21.385Z,77.52
2018-12-23T12:08:48.857Z,77.67
2018-12-23T12:11:16.643Z,77.71
2018-12-23T12:13:44.024Z,77.87
2018-12-23T12:16:11.557Z,77.95
2018-12-23T12:18:39.033Z,77.96
2018-12-23T12:21:38.152Z,78.05
2018-12-23T12:24:07.046Z,78.05
2018-12-23T12:26:35.780Z,78.27
2018-12-23T12:29:04.289Z,78.40
2018-12-23T12:31:32.869Z,78.40
2018-12-23T12:34:01.767Z,78.71
2018-12-23T12:36:30.277Z,78.71
2018-12-23T12:38:58.820Z,78.55
2018-12-23T12:41:28.242Z,78.42
2018-12-23T12:43:56.871Z,78.54
2018-12-23T12:46:25.364Z,78.49
2018-12-23T12:48:53.942Z,78.35
2018-12-23T12:51:22.468Z,78.35
2018-12-23T12:53:51.202Z,78.51
2018-12-23T12:56:19.965Z,78.42
2018-12-23T12:58:48.472Z,78.26
2018-12-23T13:01:16.953Z,78.15
2018-12-23T13:03:45.471Z,78.42
2018-12-23T13:06:14.293Z,78.25
2018-12-23T13:08:42.794Z,78.53
2018-12-23T13:11:11.686Z,78.53
2018-12-23T13:13:40.562Z,78.76
2018-12-23T13:16:09.076Z,79.18
2018-12-23T13:18:37.560Z,79.18
2018-12-23T13:21:06.057Z,79.21
2018-12-23T13:23:34.682Z,79.50
2018-12-23T13:26:03.288Z,79.53
2018-12-23T13:28:31.773Z,79.53
2018-12-23T13:31:00.548Z,79.59
2018-12-23T13:33:29.043Z,80.12
2018-12-23T13:35:57.736Z,80.17
2018-12-23T13:38:26.288Z,80.17
2018-12-23T13:41:00.841Z,80.29
2018-12-23T13:43:32.776Z,80.39
2018-12-23T13:46:10.198Z,80.39
2018-12-23T13:49:10.343Z,80.76
2018-12-23T13:51:53.766Z,80.76
2018-12-23T13:54:43.588Z,81.14
2018-12-23T13:57:17.948Z,81.50
2018-12-23T13:59:52.192Z,81.50
2018-12-23T14:02:29.453Z,81.55
2018-12-23T14:05:15.770Z,81.28
2018-12-23T14:07:53.263Z,80.96
2018-12-23T14:11:09.153Z,81.12
2018-12-23T14:13:58.049Z,81.12
2018-12-23T14:16:59.810Z,80.54
2018-12-23T14:20:26.468Z,80.54
2018-12-23T14:22:57.364Z,80.71
2018-12-23T14:25:51.684Z,80.84
2018-12-23T14:28:55.353Z,80.93
2018-12-23T14:31:50.355Z,81.05
2018-12-23T14:34:41.790Z,80.93
2018-12-23T14:37:14.546Z,81.02
2018-12-23T14:42:58.779Z,80.90
2018-12-23T14:45:55.809Z,80.98
2018-12-23T14:48:30.445Z,81.46
2018-12-23T14:58:28.327Z,81.45
2018-12-23T15:06:59.686Z,81.24
2018-12-23T15:09:48.286Z,81.10
2018-12-23T15:12:25.121Z,81.10
2018-12-23T15:15:30.322Z,81.16
2018-12-23T15:18:44.728Z,81.16
2018-12-23T15:21:06.554Z,81.54
2018-12-23T15:24:34.539Z,81.26
2018-12-23T15:26:46.887Z,81.26
2018-12-23T15:29:26.652Z,81.16
2018-12-23T15:32:00.254Z,81.57
2018-12-23T15:37:45.438Z,81.79
2018-12-23T15:40:21.476Z,81.65
2018-12-23T15:43:06.016Z,81.65
2018-12-23T15:49:08.124Z,81.42
2018-12-23T15:51:49.149Z,81.37
2018-12-23T15:55:17.364Z,81.33
2018-12-23T15:57:42.624Z,81.33
2018-12-23T16:00:50.453Z,81.39
2018-12-23T16:03:02.082Z,81.50
2018-12-23T16:05:48.978Z,81.59
2018-12-23T16:08:59.190Z,81.73
2018-12-23T16:14:16.048Z,81.21
2018-12-23T16:17:02.990Z,81.21
2018-12-23T16:19:33.673Z,81.19
2018-12-23T16:22:03.461Z,81.19
2018-12-23T16:24:32.184Z,81.35
2018-12-23T16:27:00.674Z,81.47
2018-12-23T16:29:29.353Z,81.52
2018-12-23T16:31:58.078Z,82.00
2018-12-23T16:34:28.449Z,82.00
2018-12-23T16:36:57.339Z,81.96
2018-12-23T16:39:26.134Z,81.87
2018-12-23T16:41:54.668Z,81.80
2018-12-23T16:44:23.254Z,81.78
2018-12-23T16:46:52.017Z,81.99
2018-12-23T16:49:22.245Z,81.99
2018-12-23T16:51:50.805Z,82.21
2018-12-23T16:54:19.286Z,81.90
2018-12-23T16:56:47.786Z,82.24
2018-12-23T16:59:16.288Z,82.24
2018-12-23T17:01:44.789Z,82.18
2018-12-23T17:04:13.275Z,82.18
2018-12-23T17:06:42.382Z,81.98
2018-12-23T17:09:10.867Z,82.06
2018-12-23T17:11:39.478Z,82.13
2018-12-23T17:14:08.214Z,82.25
2018-12-23T17:16:37.146Z,82.25
2018-12-23T17:19:05.626Z,82.15
2018-12-23T17:21:34.232Z,82.24
2018-12-23T17:24:03.192Z,82.12
2018-12-23T17:26:32.496Z,82.28
2018-12-23T17:29:01.221Z,82.28
2018-12-23T17:31:29.856Z,82.01
2018-12-23T17:33:58.334Z,82.56
2018-12-23T17:36:26.834Z,82.81
2018-12-23T17:38:55.324Z,82.81
2018-12-23T17:41:23.818Z,82.89
2018-12-23T17:43:52.456Z,82.74
2018-12-23T17:46:21.145Z,83.05
2018-12-23T17:48:49.643Z,82.81
2018-12-23T17:51:18.142Z,82.81
2018-12-23T17:53:46.646Z,82.46
2018-12-23T17:56:15.129Z,82.46
2018-12-23T17:58:43.620Z,82.77
2018-12-23T18:01:12.871Z,82.55
2018-12-23T18:03:41.472Z,82.78
2018-12-23T18:06:10.219Z,82.81
2018-12-23T18:08:38.722Z,82.79
2018-12-23T18:11:07.207Z,82.79
2018-12-23T18:13:35.735Z,82.64
2018-12-23T18:16:04.226Z,82.64
2018-12-23T18:18:32.707Z,82.88
2018-12-23T18:21:01.557Z,83.10
2018-12-23T18:23:30.217Z,83.10
2018-12-23T18:25:58.832Z,82.82
2018-12-23T18:28:27.407Z,82.62
2018-12-23T18:30:55.889Z,82.60
2018-12-23T18:33:24.402Z,82.46
2018-12-23T18:35:52.888Z,82.60
2018-12-23T18:38:21.440Z,82.60
2018-12-23T18:40:49.930Z,82.66
2018-12-23T18:43:18.418Z,82.66
2018-12-23T18:45:46.907Z,82.61
2018-12-23T18:48:15.657Z,82.32
2018-12-23T18:50:44.156Z,82.19
2018-12-23T18:53:13.240Z,81.99
2018-12-23T18:55:41.728Z,81.99
2018-12-23T18:58:10.216Z,82.29
2018-12-23T19:00:39.461Z,82.83
2018-12-23T19:03:07.996Z,82.32
2018-12-23T19:05:36.648Z,82.32
2018-12-23T19:08:06.566Z,82.48
2018-12-23T19:10:42.066Z,82.53
2018-12-23T19:13:29.521Z,82.53
2018-12-23T19:16:07.067Z,82.50
2018-12-23T19:18:47.560Z,82.74
2018-12-23T19:21:34.166Z,82.74
2018-12-23T19:24:20.691Z,82.81
2018-12-23T19:26:55.186Z,83.09
2018-12-23T19:29:36.027Z,83.09
2018-12-23T19:32:19.603Z,82.85
2018-12-23T19:35:00.300Z,82.85
2018-12-23T19:37:38.117Z,83.35
2018-12-23T19:40:29.149Z,83.35
2018-12-23T19:43:03.656Z,83.63
2018-12-23T19:45:52.780Z,83.70
2018-12-23T19:48:46.683Z,83.73
2018-12-23T19:51:34.939Z,83.80
2018-12-23T19:54:24.369Z,83.80
2018-12-23T19:57:19.054Z,84.57
2018-12-23T20:00:23.693Z,84.57
2018-12-23T20:03:03.857Z,84.90
2018-12-23T20:06:02.958Z,84.97
2018-12-23T20:08:43.330Z,85.40
2018-12-23T20:11:29.853Z,85.53
2018-12-23T20:14:20.605Z,85.16
2018-12-23T20:17:07.151Z,85.85
2018-12-23T20:19:51.123Z,85.85
2018-12-23T20:22:39.081Z,85.57
2018-12-23T20:25:14.081Z,85.73
2018-12-23T20:28:11.242Z,86.11
2018-12-23T20:30:43.196Z,86.32
2018-12-23T20:33:29.565Z,86.32
2018-12-23T20:36:29.933Z,86.30
2018-12-23T20:39:26.268Z,87.06
2018-12-23T20:42:26.301Z,87.06
2018-12-23T20:45:07.105Z,87.07
2018-12-23T20:47:44.349Z,87.07
2018-12-23T20:50:24.963Z,87.52
2018-12-23T20:53:17.757Z,87.52
2018-12-23T20:55:58.129Z,87.50
2018-12-23T20:58:32.344Z,87.21
2018-12-23T21:01:20.716Z,87.21
2018-12-23T21:03:55.307Z,87.36
2018-12-23T21:06:59.948Z,87.36
2018-12-23T21:09:40.491Z,87.33
2018-12-23T21:12:39.953Z,87.33
2018-12-23T21:15:20.569Z,87.59
2018-12-23T21:17:54.569Z,87.69
2018-12-23T21:20:44.386Z,87.55
2018-12-23T21:23:37.438Z,87.75
2018-12-23T21:26:28.448Z,87.97
2018-12-23T21:29:02.828Z,87.97
2018-12-23T21:31:37.046Z,87.84
2018-12-23T21:34:17.455Z,87.69
2018-12-23T21:37:03.793Z,87.03
2018-12-23T21:39:56.490Z,86.80
2018-12-23T21:42:31.105Z,86.80
2018-12-23T21:45:28.711Z,86.61
2018-12-23T21:48:31.900Z,86.43
2018-12-23T21:51:33.534Z,86.37
2018-12-23T21:54:14.291Z,85.83
2018-12-23T21:57:07.720Z,85.02
2018-12-23T21:59:41.706Z,85.09
2018-12-23T22:02:45.276Z,84.83
2018-12-23T22:05:25.822Z,85.24
2018-12-23T22:08:12.757Z,85.21
2018-12-23T22:10:56.184Z,85.36
2018-12-23T22:13:27.360Z,85.51
2018-12-23T22:15:55.934Z,85.47
2018-12-23T22:18:24.686Z,85.61
2018-12-23T22:20:53.166Z,85.68
2018-12-23T22:23:21.666Z,85.66
2018-12-23T22:25:50.154Z,85.65
2018-12-23T22:28:18.663Z,85.96
2018-12-23T22:30:47.335Z,85.53
2018-12-23T22:33:16.199Z,85.37
2018-12-23T22:35:44.699Z,85.45
2018-12-23T22:38:13.338Z,85.49
2018-12-23T22:40:41.828Z,85.50
2018-12-23T22:43:10.360Z,85.65
2018-12-23T22:45:38.831Z,85.84
2018-12-23T22:48:07.923Z,86.01
2018-12-23T22:50:36.419Z,85.87
2018-12-23T22:53:04.911Z,85.80
2018-12-23T22:55:33.404Z,85.79
2018-12-23T22:58:01.886Z,85.81
2018-12-23T23:00:31.532Z,85.77
2018-12-23T23:03:08.774Z,85.79
2018-12-23T23:05:30.545Z,85.81
2018-12-23T23:07:59.216Z,85.85
2018-12-23T23:10:27.844Z,85.67
2018-12-23T23:12:56.522Z,85.45
2018-12-23T23:15:25.018Z,85.21
2018-12-23T23:17:53.494Z,85.27
2018-12-23T23:20:22.002Z,85.11
2018-12-23T23:22:50.490Z,85.02
2018-12-23T23:25:19.213Z,84.97
2018-12-23T23:27:47.695Z,84.78
2018-12-23T23:30:16.204Z,85.03
2018-12-23T23:32:44.683Z,85.06
2018-12-23T23:35:13.415Z,85.00
2018-12-23T23:37:42.235Z,84.83
2018-12-23T23:40:11.344Z,84.90
2018-12-23T23:42:40.014Z,84.79
2018-12-23T23:45:08.506Z,84.76
2018-12-23T23:47:37.403Z,84.57
2018-12-23T23:50:06.557Z,84.48
2018-12-23T23:52:35.933Z,84.52
2018-12-23T23:55:04.594Z,84.57
2018-12-23T23:57:33.584Z,84.55
